map of AZD home
AZD - Airport
Location
City:  Yazd, Yazd, Iran
Name:Shahid Sadooghi
ICAO:OIYY
IATA:AZD

Details
Type:Airport (Aerodrome, Airfield)
Use:Public/Civil
Latitude:3154'18"N (31.904908)
Longitude:5416'35"E (54.276503)
Datum:WGS 1984
Elevation:4054 ft (1236 m)
Variation:3.53E (WMM2015 magnetic declination)
0.05 annual change
Runways:1
Longest:13446 × 148 ft (4098 × 45 m), paved

Time
Time Zone:UTC+3:30 (DST+4:30)
Local Time:

Weather
METAR:OIYY 130900Z 01002KT 9999 FEW100 12/M14 Q1024

Related Locations
Nearby:
Farthest:GMR: 11610 mi / 18685 km
Mangareva [Totegegie], Gambier Islands, PF

Find:

   beyond  
but within

Other Information
Maps:
NOTAMs:
Links:
Sources:

  
flag of Iran   

Sectional Chart

Flight Planning
at skyvector.com

Satellite Image

Google Maps Satellite view

 

Copyright © 2004-2017 Karl L. Swartz. All rights reserved.
The Great Circle Mapper name and logo are trademarks of the Great Circle Mapper.
All other trademarks mentioned herein belong to their respective owners.
Please see credits for attibutions and further copyright information.

  Follow gcmap on Facebook Follow gcmap on Twitter Follow gcmap on Google+ GCmap on LinkedIn

hCard Microformat

Geo Microformat